sensor_id;sensor_type;location;lat;lon;timestamp;P1;durP1;ratioP1;P2;durP2;ratioP2
58615;SDS011;44385;51.992;4.206;2024-02-14T00:01:11;22.30;;;18.13;;
58615;SDS011;44385;51.992;4.206;2024-02-14T00:03:37;26.95;;;19.73;;
58615;SDS011;44385;51.992;4.206;2024-02-14T00:06:04;28.20;;;19.42;;
58615;SDS011;44385;51.992;4.206;2024-02-14T00:08:32;21.98;;;18.67;;
58615;SDS011;44385;51.992;4.206;2024-02-14T00:10:59;21.15;;;16.55;;
58615;SDS011;44385;51.992;4.206;2024-02-14T00:13:26;21.85;;;16.98;;
58615;SDS011;44385;51.992;4.206;2024-02-14T00:15:53;23.38;;;17.55;;
58615;SDS011;44385;51.992;4.206;2024-02-14T00:18:19;14.65;;;12.23;;
58615;SDS011;44385;51.992;4.206;2024-02-14T00:20:47;21.63;;;17.92;;
58615;SDS011;44385;51.992;4.206;2024-02-14T00:23:14;23.70;;;15.38;;
58615;SDS011;44385;51.992;4.206;2024-02-14T00:25:42;20.55;;;16.13;;
58615;SDS011;44385;51.992;4.206;2024-02-14T00:28:08;23.38;;;16.88;;
58615;SDS011;44385;51.992;4.206;2024-02-14T00:30:35;24.08;;;16.70;;
58615;SDS011;44385;51.992;4.206;2024-02-14T00:33:01;24.25;;;17.25;;
58615;SDS011;44385;51.992;4.206;2024-02-14T00:35:28;23.73;;;18.30;;
58615;SDS011;44385;51.992;4.206;2024-02-14T00:37:54;20.02;;;15.43;;
58615;SDS011;44385;51.992;4.206;2024-02-14T00:40:21;21.27;;;15.57;;
58615;SDS011;44385;51.992;4.206;2024-02-14T00:42:49;26.20;;;17.73;;
58615;SDS011;44385;51.992;4.206;2024-02-14T00:45:15;19.10;;;15.27;;
58615;SDS011;44385;51.992;4.206;2024-02-14T00:47:42;22.88;;;15.98;;
58615;SDS011;44385;51.992;4.206;2024-02-14T00:50:08;22.50;;;16.35;;
58615;SDS011;44385;51.992;4.206;2024-02-14T00:52:35;23.00;;;16.48;;
58615;SDS011;44385;51.992;4.206;2024-02-14T00:55:01;18.15;;;14.77;;
58615;SDS011;44385;51.992;4.206;2024-02-14T00:57:29;20.60;;;14.88;;
58615;SDS011;44385;51.992;4.206;2024-02-14T00:59:57;19.63;;;14.05;;
58615;SDS011;44385;51.992;4.206;2024-02-14T01:02:23;12.25;;;9.32;;
58615;SDS011;44385;51.992;4.206;2024-02-14T01:04:51;19.83;;;14.88;;
58615;SDS011;44385;51.992;4.206;2024-02-14T01:07:17;17.58;;;13.38;;
58615;SDS011;44385;51.992;4.206;2024-02-14T01:09:44;16.20;;;11.70;;
58615;SDS011;44385;51.992;4.206;2024-02-14T01:12:10;15.18;;;12.45;;
58615;SDS011;44385;51.992;4.206;2024-02-14T01:14:37;16.50;;;13.30;;
58615;SDS011;44385;51.992;4.206;2024-02-14T01:17:05;17.58;;;12.57;;
58615;SDS011;44385;51.992;4.206;2024-02-14T01:19:31;17.95;;;13.45;;
58615;SDS011;44385;51.992;4.206;2024-02-14T01:21:58;18.08;;;11.45;;
58615;SDS011;44385;51.992;4.206;2024-02-14T01:24:28;16.90;;;12.80;;
58615;SDS011;44385;51.992;4.206;2024-02-14T01:26:55;19.05;;;11.90;;
58615;SDS011;44385;51.992;4.206;2024-02-14T01:29:22;15.93;;;11.70;;
58615;SDS011;44385;51.992;4.206;2024-02-14T01:31:48;13.40;;;10.98;;
58615;SDS011;44385;51.992;4.206;2024-02-14T01:34:16;20.80;;;12.48;;
58615;SDS011;44385;51.992;4.206;2024-02-14T01:36:43;17.98;;;11.73;;
58615;SDS011;44385;51.992;4.206;2024-02-14T01:39:09;19.90;;;10.55;;
58615;SDS011;44385;51.992;4.206;2024-02-14T01:41:36;12.23;;;9.80;;
58615;SDS011;44385;51.992;4.206;2024-02-14T01:44:03;13.95;;;10.57;;
58615;SDS011;44385;51.992;4.206;2024-02-14T01:46:30;12.90;;;10.02;;
58615;SDS011;44385;51.992;4.206;2024-02-14T01:48:56;13.65;;;9.32;;
58615;SDS011;44385;51.992;4.206;2024-02-14T01:51:24;16.90;;;10.93;;
58615;SDS011;44385;51.992;4.206;2024-02-14T01:53:50;21.13;;;10.80;;
58615;SDS011;44385;51.992;4.206;2024-02-14T01:56:18;18.38;;;12.07;;
58615;SDS011;44385;51.992;4.206;2024-02-14T01:58:44;15.68;;;8.98;;
58615;SDS011;44385;51.992;4.206;2024-02-14T02:01:11;12.65;;;8.05;;
58615;SDS011;44385;51.992;4.206;2024-02-14T02:03:38;17.13;;;10.35;;
58615;SDS011;44385;51.992;4.206;2024-02-14T02:06:07;14.40;;;9.73;;
58615;SDS011;44385;51.992;4.206;2024-02-14T02:08:35;14.57;;;10.38;;
58615;SDS011;44385;51.992;4.206;2024-02-14T02:11:02;13.60;;;9.10;;
58615;SDS011;44385;51.992;4.206;2024-02-14T02:13:30;19.10;;;10.95;;
58615;SDS011;44385;51.992;4.206;2024-02-14T02:15:56;16.60;;;9.68;;
58615;SDS011;44385;51.992;4.206;2024-02-14T02:18:23;15.40;;;9.40;;
58615;SDS011;44385;51.992;4.206;2024-02-14T02:20:50;21.40;;;10.60;;
58615;SDS011;44385;51.992;4.206;2024-02-14T02:23:18;24.08;;;12.00;;
58615;SDS011;44385;51.992;4.206;2024-02-14T02:25:45;18.15;;;8.52;;
58615;SDS011;44385;51.992;4.206;2024-02-14T02:28:12;20.88;;;10.38;;
58615;SDS011;44385;51.992;4.206;2024-02-14T02:30:39;19.05;;;8.13;;
58615;SDS011;44385;51.992;4.206;2024-02-14T02:33:06;25.48;;;10.90;;
58615;SDS011;44385;51.992;4.206;2024-02-14T02:35:32;27.75;;;10.52;;
58615;SDS011;44385;51.992;4.206;2024-02-14T02:37:59;17.13;;;8.77;;
58615;SDS011;44385;51.992;4.206;2024-02-14T02:40:27;28.05;;;11.55;;
58615;SDS011;44385;51.992;4.206;2024-02-14T02:42:53;20.50;;;9.65;;
58615;SDS011;44385;51.992;4.206;2024-02-14T02:45:20;19.90;;;8.77;;
58615;SDS011;44385;51.992;4.206;2024-02-14T02:47:47;32.58;;;11.18;;
58615;SDS011;44385;51.992;4.206;2024-02-14T02:50:15;23.85;;;8.60;;
58615;SDS011;44385;51.992;4.206;2024-02-14T02:52:41;19.13;;;8.35;;
58615;SDS011;44385;51.992;4.206;2024-02-14T02:55:08;31.60;;;9.57;;
58615;SDS011;44385;51.992;4.206;2024-02-14T02:57:36;22.77;;;8.75;;
58615;SDS011;44385;51.992;4.206;2024-02-14T03:00:06;28.15;;;10.23;;
58615;SDS011;44385;51.992;4.206;2024-02-14T03:02:33;32.10;;;9.30;;
58615;SDS011;44385;51.992;4.206;2024-02-14T03:05:00;17.27;;;7.40;;
58615;SDS011;44385;51.992;4.206;2024-02-14T03:07:28;28.17;;;9.23;;
58615;SDS011;44385;51.992;4.206;2024-02-14T03:09:54;21.80;;;8.57;;
58615;SDS011;44385;51.992;4.206;2024-02-14T03:12:21;17.55;;;6.50;;
58615;SDS011;44385;51.992;4.206;2024-02-14T03:14:49;16.65;;;7.25;;
58615;SDS011;44385;51.992;4.206;2024-02-14T03:17:19;26.98;;;9.43;;
58615;SDS011;44385;51.992;4.206;2024-02-14T03:22:13;32.40;;;9.85;;
58615;SDS011;44385;51.992;4.206;2024-02-14T03:24:39;32.67;;;10.60;;
58615;SDS011;44385;51.992;4.206;2024-02-14T03:27:11;21.58;;;7.30;;
58615;SDS011;44385;51.992;4.206;2024-02-14T03:29:38;16.25;;;6.65;;
58615;SDS011;44385;51.992;4.206;2024-02-14T03:32:07;28.83;;;9.30;;
58615;SDS011;44385;51.992;4.206;2024-02-14T03:34:33;29.02;;;10.25;;
58615;SDS011;44385;51.992;4.206;2024-02-14T03:37:00;28.25;;;9.07;;
58615;SDS011;44385;51.992;4.206;2024-02-14T03:39:27;37.33;;;11.15;;
58615;SDS011;44385;51.992;4.206;2024-02-14T03:41:54;24.33;;;8.07;;
58615;SDS011;44385;51.992;4.206;2024-02-14T03:44:21;33.03;;;9.75;;
58615;SDS011;44385;51.992;4.206;2024-02-14T03:46:47;33.95;;;9.05;;
58615;SDS011;44385;51.992;4.206;2024-02-14T03:49:15;27.38;;;9.43;;
58615;SDS011;44385;51.992;4.206;2024-02-14T03:51:42;30.90;;;10.68;;
58615;SDS011;44385;51.992;4.206;2024-02-14T03:54:08;35.90;;;11.18;;
58615;SDS011;44385;51.992;4.206;2024-02-14T03:56:36;28.45;;;10.68;;
58615;SDS011;44385;51.992;4.206;2024-02-14T03:59:02;23.80;;;8.32;;
58615;SDS011;44385;51.992;4.206;2024-02-14T04:01:30;30.98;;;9.63;;
58615;SDS011;44385;51.992;4.206;2024-02-14T04:03:57;27.63;;;8.63;;
58615;SDS011;44385;51.992;4.206;2024-02-14T04:06:26;35.65;;;11.48;;
58615;SDS011;44385;51.992;4.206;2024-02-14T04:08:52;31.08;;;9.43;;
58615;SDS011;44385;51.992;4.206;2024-02-14T04:11:18;33.90;;;10.98;;
58615;SDS011;44385;51.992;4.206;2024-02-14T04:13:45;33.53;;;12.05;;
58615;SDS011;44385;51.992;4.206;2024-02-14T04:16:11;33.47;;;12.20;;
58615;SDS011;44385;51.992;4.206;2024-02-14T04:18:38;39.17;;;12.35;;
58615;SDS011;44385;51.992;4.206;2024-02-14T04:21:07;19.48;;;7.40;;
58615;SDS011;44385;51.992;4.206;2024-02-14T04:23:35;40.03;;;12.93;;
58615;SDS011;44385;51.992;4.206;2024-02-14T04:26:01;31.13;;;11.00;;
58615;SDS011;44385;51.992;4.206;2024-02-14T04:28:28;29.52;;;11.27;;
58615;SDS011;44385;51.992;4.206;2024-02-14T04:30:54;31.42;;;12.20;;
58615;SDS011;44385;51.992;4.206;2024-02-14T04:33:21;27.75;;;10.70;;
58615;SDS011;44385;51.992;4.206;2024-02-14T04:35:48;33.03;;;12.63;;
58615;SDS011;44385;51.992;4.206;2024-02-14T04:38:15;33.33;;;13.35;;
58615;SDS011;44385;51.992;4.206;2024-02-14T04:40:45;23.65;;;7.88;;
58615;SDS011;44385;51.992;4.206;2024-02-14T04:43:11;32.00;;;12.10;;
58615;SDS011;44385;51.992;4.206;2024-02-14T04:45:38;28.83;;;11.95;;
58615;SDS011;44385;51.992;4.206;2024-02-14T04:48:05;17.33;;;6.88;;
58615;SDS011;44385;51.992;4.206;2024-02-14T04:50:32;27.90;;;10.55;;
58615;SDS011;44385;51.992;4.206;2024-02-14T04:52:59;20.40;;;8.30;;
58615;SDS011;44385;51.992;4.206;2024-02-14T04:55:25;27.67;;;10.05;;
58615;SDS011;44385;51.992;4.206;2024-02-14T04:57:53;24.67;;;7.80;;
58615;SDS011;44385;51.992;4.206;2024-02-14T05:00:20;27.50;;;10.45;;
58615;SDS011;44385;51.992;4.206;2024-02-14T05:02:46;28.13;;;9.55;;
58615;SDS011;44385;51.992;4.206;2024-02-14T05:05:13;25.98;;;9.25;;
58615;SDS011;44385;51.992;4.206;2024-02-14T05:07:39;29.42;;;9.50;;
58615;SDS011;44385;51.992;4.206;2024-02-14T05:10:06;31.65;;;9.60;;
58615;SDS011;44385;51.992;4.206;2024-02-14T05:12:33;37.05;;;8.73;;
58615;SDS011;44385;51.992;4.206;2024-02-14T05:15:01;33.65;;;9.02;;
58615;SDS011;44385;51.992;4.206;2024-02-14T05:17:27;25.02;;;8.95;;
58615;SDS011;44385;51.992;4.206;2024-02-14T05:19:54;12.70;;;7.93;;
58615;SDS011;44385;51.992;4.206;2024-02-14T05:22:21;27.90;;;9.73;;
58615;SDS011;44385;51.992;4.206;2024-02-14T05:24:48;18.90;;;7.20;;
58615;SDS011;44385;51.992;4.206;2024-02-14T05:27:14;19.67;;;9.88;;
58615;SDS011;44385;51.992;4.206;2024-02-14T05:29:43;19.83;;;7.18;;
58615;SDS011;44385;51.992;4.206;2024-02-14T05:32:11;37.05;;;12.45;;
58615;SDS011;44385;51.992;4.206;2024-02-14T05:34:39;30.23;;;10.13;;
58615;SDS011;44385;51.992;4.206;2024-02-14T05:37:05;32.88;;;11.73;;
58615;SDS011;44385;51.992;4.206;2024-02-14T05:39:33;32.33;;;10.85;;
58615;SDS011;44385;51.992;4.206;2024-02-14T05:41:59;27.90;;;10.02;;
58615;SDS011;44385;51.992;4.206;2024-02-14T05:44:26;26.38;;;9.05;;
58615;SDS011;44385;51.992;4.206;2024-02-14T05:46:53;19.83;;;7.40;;
58615;SDS011;44385;51.992;4.206;2024-02-14T05:49:21;27.65;;;9.13;;
58615;SDS011;44385;51.992;4.206;2024-02-14T05:51:48;33.33;;;9.10;;
58615;SDS011;44385;51.992;4.206;2024-02-14T05:54:15;24.25;;;7.82;;
58615;SDS011;44385;51.992;4.206;2024-02-14T05:56:41;24.75;;;8.45;;
58615;SDS011;44385;51.992;4.206;2024-02-14T05:59:09;14.90;;;5.68;;
58615;SDS011;44385;51.992;4.206;2024-02-14T06:01:35;21.67;;;8.68;;
58615;SDS011;44385;51.992;4.206;2024-02-14T06:04:02;19.35;;;8.30;;
58615;SDS011;44385;51.992;4.206;2024-02-14T06:06:30;21.75;;;9.45;;
58615;SDS011;44385;51.992;4.206;2024-02-14T06:08:56;28.60;;;10.05;;
58615;SDS011;44385;51.992;4.206;2024-02-14T06:11:23;25.23;;;8.70;;
58615;SDS011;44385;51.992;4.206;2024-02-14T06:13:50;20.50;;;11.25;;
58615;SDS011;44385;51.992;4.206;2024-02-14T06:16:16;29.00;;;12.00;;
58615;SDS011;44385;51.992;4.206;2024-02-14T06:18:43;22.73;;;12.23;;
58615;SDS011;44385;51.992;4.206;2024-02-14T06:21:09;30.83;;;12.93;;
58615;SDS011;44385;51.992;4.206;2024-02-14T06:23:37;27.40;;;12.63;;
58615;SDS011;44385;51.992;4.206;2024-02-14T06:26:04;35.65;;;14.43;;
58615;SDS011;44385;51.992;4.206;2024-02-14T06:28:31;20.15;;;11.30;;
58615;SDS011;44385;51.992;4.206;2024-02-14T06:30:57;25.50;;;10.07;;
58615;SDS011;44385;51.992;4.206;2024-02-14T06:33:25;28.90;;;11.40;;
58615;SDS011;44385;51.992;4.206;2024-02-14T06:35:51;28.98;;;12.75;;
58615;SDS011;44385;51.992;4.206;2024-02-14T06:38:18;31.85;;;12.05;;
58615;SDS011;44385;51.992;4.206;2024-02-14T06:40:46;26.17;;;11.95;;
58615;SDS011;44385;51.992;4.206;2024-02-14T06:43:12;25.55;;;12.57;;
58615;SDS011;44385;51.992;4.206;2024-02-14T06:45:38;21.55;;;10.32;;
58615;SDS011;44385;51.992;4.206;2024-02-14T06:48:05;25.98;;;9.38;;
58615;SDS011;44385;51.992;4.206;2024-02-14T06:50:33;30.85;;;11.25;;
58615;SDS011;44385;51.992;4.206;2024-02-14T06:52:59;23.13;;;12.02;;
58615;SDS011;44385;51.992;4.206;2024-02-14T06:55:26;23.40;;;9.32;;
58615;SDS011;44385;51.992;4.206;2024-02-14T06:57:54;24.52;;;10.18;;
58615;SDS011;44385;51.992;4.206;2024-02-14T07:00:20;25.88;;;10.45;;
58615;SDS011;44385;51.992;4.206;2024-02-14T07:02:47;26.17;;;9.98;;
58615;SDS011;44385;51.992;4.206;2024-02-14T07:05:13;24.25;;;10.45;;
58615;SDS011;44385;51.992;4.206;2024-02-14T07:07:40;19.70;;;9.25;;
58615;SDS011;44385;51.992;4.206;2024-02-14T07:10:07;20.90;;;9.27;;
58615;SDS011;44385;51.992;4.206;2024-02-14T07:12:33;23.88;;;9.45;;
58615;SDS011;44385;51.992;4.206;2024-02-14T07:15:02;18.75;;;9.15;;
58615;SDS011;44385;51.992;4.206;2024-02-14T07:17:31;13.32;;;6.75;;
58615;SDS011;44385;51.992;4.206;2024-02-14T07:19:58;16.70;;;8.48;;
58615;SDS011;44385;51.992;4.206;2024-02-14T07:22:24;23.45;;;8.55;;
58615;SDS011;44385;51.992;4.206;2024-02-14T07:24:51;24.77;;;7.63;;
58615;SDS011;44385;51.992;4.206;2024-02-14T07:27:18;19.98;;;7.53;;
58615;SDS011;44385;51.992;4.206;2024-02-14T07:29:46;22.80;;;8.77;;
58615;SDS011;44385;51.992;4.206;2024-02-14T07:32:13;26.15;;;10.02;;
58615;SDS011;44385;51.992;4.206;2024-02-14T07:34:40;22.65;;;9.35;;
58615;SDS011;44385;51.992;4.206;2024-02-14T07:37:06;22.00;;;10.00;;
58615;SDS011;44385;51.992;4.206;2024-02-14T07:39:33;23.98;;;9.85;;
58615;SDS011;44385;51.992;4.206;2024-02-14T07:42:00;23.40;;;10.20;;
58615;SDS011;44385;51.992;4.206;2024-02-14T07:44:26;17.77;;;8.93;;
58615;SDS011;44385;51.992;4.206;2024-02-14T07:46:52;16.48;;;8.60;;
58615;SDS011;44385;51.992;4.206;2024-02-14T07:49:20;19.67;;;10.65;;
58615;SDS011;44385;51.992;4.206;2024-02-14T07:51:47;19.90;;;9.40;;
58615;SDS011;44385;51.992;4.206;2024-02-14T07:54:13;13.23;;;7.88;;
58615;SDS011;44385;51.992;4.206;2024-02-14T07:56:40;19.52;;;11.95;;
58615;SDS011;44385;51.992;4.206;2024-02-14T07:59:06;17.63;;;12.27;;
58615;SDS011;44385;51.992;4.206;2024-02-14T08:01:33;17.42;;;12.68;;
58615;SDS011;44385;51.992;4.206;2024-02-14T08:03:59;19.00;;;13.95;;
58615;SDS011;44385;51.992;4.206;2024-02-14T08:06:27;22.35;;;15.82;;
58615;SDS011;44385;51.992;4.206;2024-02-14T08:08:54;21.08;;;15.93;;
58615;SDS011;44385;51.992;4.206;2024-02-14T08:11:24;22.20;;;16.67;;
58615;SDS011;44385;51.992;4.206;2024-02-14T08:13:50;21.98;;;16.67;;
58615;SDS011;44385;51.992;4.206;2024-02-14T08:16:17;25.08;;;17.00;;
58615;SDS011;44385;51.992;4.206;2024-02-14T08:18:43;26.92;;;17.67;;
58615;SDS011;44385;51.992;4.206;2024-02-14T08:21:10;25.20;;;17.90;;
58615;SDS011;44385;51.992;4.206;2024-02-14T08:23:38;26.15;;;17.48;;
58615;SDS011;44385;51.992;4.206;2024-02-14T08:28:35;24.57;;;17.17;;
58615;SDS011;44385;51.992;4.206;2024-02-14T08:31:09;26.05;;;16.88;;
58615;SDS011;44385;51.992;4.206;2024-02-14T08:33:36;25.00;;;17.73;;
58615;SDS011;44385;51.992;4.206;2024-02-14T08:36:02;23.50;;;13.15;;
58615;SDS011;44385;51.992;4.206;2024-02-14T08:38:29;27.98;;;17.75;;
58615;SDS011;44385;51.992;4.206;2024-02-14T08:41:01;21.17;;;15.65;;
58615;SDS011;44385;51.992;4.206;2024-02-14T08:43:27;27.00;;;18.10;;
58615;SDS011;44385;51.992;4.206;2024-02-14T08:45:54;22.30;;;13.50;;
58615;SDS011;44385;51.992;4.206;2024-02-14T08:48:21;24.98;;;16.55;;
58615;SDS011;44385;51.992;4.206;2024-02-14T08:50:47;26.92;;;15.55;;
58615;SDS011;44385;51.992;4.206;2024-02-14T08:53:14;19.98;;;13.60;;
58615;SDS011;44385;51.992;4.206;2024-02-14T08:55:40;19.92;;;14.07;;
58615;SDS011;44385;51.992;4.206;2024-02-14T08:58:08;19.27;;;13.85;;
58615;SDS011;44385;51.992;4.206;2024-02-14T09:00:35;19.95;;;14.57;;
58615;SDS011;44385;51.992;4.206;2024-02-14T09:03:02;21.63;;;14.38;;
58615;SDS011;44385;51.992;4.206;2024-02-14T09:05:29;18.13;;;11.85;;
58615;SDS011;44385;51.992;4.206;2024-02-14T09:07:56;16.00;;;11.95;;
58615;SDS011;44385;51.992;4.206;2024-02-14T09:10:22;15.73;;;12.05;;
58615;SDS011;44385;51.992;4.206;2024-02-14T09:12:49;16.27;;;12.88;;
58615;SDS011;44385;51.992;4.206;2024-02-14T09:15:17;19.27;;;13.88;;
58615;SDS011;44385;51.992;4.206;2024-02-14T09:17:44;21.23;;;15.15;;
58615;SDS011;44385;51.992;4.206;2024-02-14T09:20:11;17.83;;;14.57;;
58615;SDS011;44385;51.992;4.206;2024-02-14T09:22:39;18.73;;;14.73;;
58615;SDS011;44385;51.992;4.206;2024-02-14T09:25:06;19.20;;;16.05;;
58615;SDS011;44385;51.992;4.206;2024-02-14T09:27:33;24.38;;;16.27;;
58615;SDS011;44385;51.992;4.206;2024-02-14T09:30:01;19.25;;;13.68;;
58615;SDS011;44385;51.992;4.206;2024-02-14T09:32:30;20.55;;;15.30;;
58615;SDS011;44385;51.992;4.206;2024-02-14T09:34:57;19.63;;;14.45;;
58615;SDS011;44385;51.992;4.206;2024-02-14T09:37:23;20.15;;;14.73;;
58615;SDS011;44385;51.992;4.206;2024-02-14T09:39:49;20.20;;;15.43;;
58615;SDS011;44385;51.992;4.206;2024-02-14T09:42:19;20.35;;;14.85;;
58615;SDS011;44385;51.992;4.206;2024-02-14T09:44:50;20.38;;;14.65;;
58615;SDS011;44385;51.992;4.206;2024-02-14T09:47:18;20.20;;;13.55;;
58615;SDS011;44385;51.992;4.206;2024-02-14T09:49:46;16.55;;;13.02;;
58615;SDS011;44385;51.992;4.206;2024-02-14T09:52:15;18.10;;;12.52;;
58615;SDS011;44385;51.992;4.206;2024-02-14T09:54:41;14.80;;;11.73;;
58615;SDS011;44385;51.992;4.206;2024-02-14T09:57:08;13.85;;;10.27;;
58615;SDS011;44385;51.992;4.206;2024-02-14T09:59:35;16.02;;;11.50;;
58615;SDS011;44385;51.992;4.206;2024-02-14T10:02:02;12.63;;;10.32;;
58615;SDS011;44385;51.992;4.206;2024-02-14T10:04:28;16.23;;;11.20;;
58615;SDS011;44385;51.992;4.206;2024-02-14T10:06:56;13.52;;;11.30;;
58615;SDS011;44385;51.992;4.206;2024-02-14T10:09:22;12.40;;;10.18;;
58615;SDS011;44385;51.992;4.206;2024-02-14T10:11:50;13.65;;;10.70;;
58615;SDS011;44385;51.992;4.206;2024-02-14T10:14:17;13.95;;;10.80;;
58615;SDS011;44385;51.992;4.206;2024-02-14T10:16:43;16.42;;;11.13;;
58615;SDS011;44385;51.992;4.206;2024-02-14T10:19:14;12.18;;;10.02;;
58615;SDS011;44385;51.992;4.206;2024-02-14T10:21:40;12.68;;;10.38;;
58615;SDS011;44385;51.992;4.206;2024-02-14T10:24:08;14.85;;;10.52;;
58615;SDS011;44385;51.992;4.206;2024-02-14T10:26:35;11.82;;;10.00;;
58615;SDS011;44385;51.992;4.206;2024-02-14T10:29:02;16.75;;;11.77;;
58615;SDS011;44385;51.992;4.206;2024-02-14T10:31:28;12.98;;;10.20;;
58615;SDS011;44385;51.992;4.206;2024-02-14T10:33:55;13.43;;;10.80;;
58615;SDS011;44385;51.992;4.206;2024-02-14T10:36:22;15.70;;;12.15;;
58615;SDS011;44385;51.992;4.206;2024-02-14T10:38:50;16.20;;;11.95;;
58615;SDS011;44385;51.992;4.206;2024-02-14T10:41:18;16.17;;;11.27;;
58615;SDS011;44385;51.992;4.206;2024-02-14T10:43:44;11.80;;;9.35;;
58615;SDS011;44385;51.992;4.206;2024-02-14T10:46:12;15.38;;;11.40;;
58615;SDS011;44385;51.992;4.206;2024-02-14T10:51:59;16.20;;;12.10;;
58615;SDS011;44385;51.992;4.206;2024-02-14T10:54:29;15.50;;;11.88;;
58615;SDS011;44385;51.992;4.206;2024-02-14T10:56:58;16.75;;;11.77;;
58615;SDS011;44385;51.992;4.206;2024-02-14T10:59:24;17.47;;;11.87;;
58615;SDS011;44385;51.992;4.206;2024-02-14T11:01:51;13.60;;;10.82;;
58615;SDS011;44385;51.992;4.206;2024-02-14T11:04:18;12.90;;;9.93;;
58615;SDS011;44385;51.992;4.206;2024-02-14T11:06:46;15.68;;;11.73;;
58615;SDS011;44385;51.992;4.206;2024-02-14T11:09:13;13.23;;;10.25;;
58615;SDS011;44385;51.992;4.206;2024-02-14T11:11:40;14.60;;;10.45;;
58615;SDS011;44385;51.992;4.206;2024-02-14T11:14:09;12.85;;;9.90;;
58615;SDS011;44385;51.992;4.206;2024-02-14T11:16:36;16.50;;;10.77;;
58615;SDS011;44385;51.992;4.206;2024-02-14T11:19:06;12.10;;;9.70;;
58615;SDS011;44385;51.992;4.206;2024-02-14T11:21:37;12.93;;;9.63;;
58615;SDS011;44385;51.992;4.206;2024-02-14T11:24:07;12.25;;;8.20;;
58615;SDS011;44385;51.992;4.206;2024-02-14T11:26:40;9.30;;;7.88;;
58615;SDS011;44385;51.992;4.206;2024-02-14T11:29:28;11.27;;;9.40;;
58615;SDS011;44385;51.992;4.206;2024-02-14T11:31:58;12.23;;;9.55;;
58615;SDS011;44385;51.992;4.206;2024-02-14T11:34:27;10.27;;;8.52;;
58615;SDS011;44385;51.992;4.206;2024-02-14T11:36:53;14.43;;;9.95;;
58615;SDS011;44385;51.992;4.206;2024-02-14T11:39:20;14.27;;;9.55;;
58615;SDS011;44385;51.992;4.206;2024-02-14T11:41:46;14.13;;;9.70;;
58615;SDS011;44385;51.992;4.206;2024-02-14T11:44:13;14.18;;;10.00;;
58615;SDS011;44385;51.992;4.206;2024-02-14T11:46:41;14.43;;;10.05;;
58615;SDS011;44385;51.992;4.206;2024-02-14T11:49:08;14.52;;;10.73;;
58615;SDS011;44385;51.992;4.206;2024-02-14T11:51:35;16.75;;;11.50;;
58615;SDS011;44385;51.992;4.206;2024-02-14T11:54:01;13.05;;;10.07;;
58615;SDS011;44385;51.992;4.206;2024-02-14T11:56:30;14.63;;;8.93;;
58615;SDS011;44385;51.992;4.206;2024-02-14T11:58:59;11.30;;;9.05;;
58615;SDS011;44385;51.992;4.206;2024-02-14T12:01:25;9.25;;;6.75;;
58615;SDS011;44385;51.992;4.206;2024-02-14T12:03:53;11.38;;;8.73;;
58615;SDS011;44385;51.992;4.206;2024-02-14T12:06:20;10.75;;;9.02;;
58615;SDS011;44385;51.992;4.206;2024-02-14T12:08:56;12.00;;;8.23;;
58615;SDS011;44385;51.992;4.206;2024-02-14T12:11:26;9.68;;;8.55;;
58615;SDS011;44385;51.992;4.206;2024-02-14T12:13:53;10.40;;;7.60;;
58615;SDS011;44385;51.992;4.206;2024-02-14T12:16:19;12.18;;;8.93;;
58615;SDS011;44385;51.992;4.206;2024-02-14T12:18:46;10.07;;;8.80;;
58615;SDS011;44385;51.992;4.206;2024-02-14T12:21:14;10.20;;;9.07;;
58615;SDS011;44385;51.992;4.206;2024-02-14T12:23:40;11.82;;;9.25;;
58615;SDS011;44385;51.992;4.206;2024-02-14T12:26:07;9.25;;;6.80;;
58615;SDS011;44385;51.992;4.206;2024-02-14T12:28:40;9.88;;;7.93;;
58615;SDS011;44385;51.992;4.206;2024-02-14T12:31:06;9.73;;;7.07;;
58615;SDS011;44385;51.992;4.206;2024-02-14T12:33:32;12.75;;;8.35;;
58615;SDS011;44385;51.992;4.206;2024-02-14T12:36:00;12.60;;;8.45;;
58615;SDS011;44385;51.992;4.206;2024-02-14T12:38:29;12.10;;;8.50;;
58615;SDS011;44385;51.992;4.206;2024-02-14T12:43:24;10.93;;;7.32;;
58615;SDS011;44385;51.992;4.206;2024-02-14T12:45:50;10.02;;;7.60;;
58615;SDS011;44385;51.992;4.206;2024-02-14T12:48:21;8.25;;;6.70;;
58615;SDS011;44385;51.992;4.206;2024-02-14T12:50:53;12.70;;;8.23;;
58615;SDS011;44385;51.992;4.206;2024-02-14T12:53:20;11.30;;;8.00;;
58615;SDS011;44385;51.992;4.206;2024-02-14T12:55:48;9.10;;;6.22;;
58615;SDS011;44385;51.992;4.206;2024-02-14T12:58:15;9.98;;;6.57;;
58615;SDS011;44385;51.992;4.206;2024-02-14T13:00:41;9.20;;;7.15;;
58615;SDS011;44385;51.992;4.206;2024-02-14T13:03:09;8.18;;;6.35;;
58615;SDS011;44385;51.992;4.206;2024-02-14T13:05:36;7.82;;;5.53;;
58615;SDS011;44385;51.992;4.206;2024-02-14T13:08:03;7.15;;;5.60;;
58615;SDS011;44385;51.992;4.206;2024-02-14T13:10:30;7.95;;;4.60;;
58615;SDS011;44385;51.992;4.206;2024-02-14T13:12:58;5.53;;;4.78;;
58615;SDS011;44385;51.992;4.206;2024-02-14T13:15:25;3.88;;;3.58;;
58615;SDS011;44385;51.992;4.206;2024-02-14T13:17:51;8.15;;;3.90;;
58615;SDS011;44385;51.992;4.206;2024-02-14T13:20:18;2.90;;;2.60;;
58615;SDS011;44385;51.992;4.206;2024-02-14T13:22:44;5.90;;;3.63;;
58615;SDS011;44385;51.992;4.206;2024-02-14T13:25:11;3.80;;;3.10;;
58615;SDS011;44385;51.992;4.206;2024-02-14T13:27:37;3.72;;;3.28;;
58615;SDS011;44385;51.992;4.206;2024-02-14T13:30:06;3.83;;;3.53;;
58615;SDS011;44385;51.992;4.206;2024-02-14T13:32:33;5.00;;;3.33;;
58615;SDS011;44385;51.992;4.206;2024-02-14T13:34:59;5.18;;;3.28;;
58615;SDS011;44385;51.992;4.206;2024-02-14T13:37:26;4.60;;;2.83;;
58615;SDS011;44385;51.992;4.206;2024-02-14T13:39:52;4.65;;;3.72;;
58615;SDS011;44385;51.992;4.206;2024-02-14T13:42:19;6.13;;;3.53;;
58615;SDS011;44385;51.992;4.206;2024-02-14T13:44:45;3.30;;;3.00;;
58615;SDS011;44385;51.992;4.206;2024-02-14T13:47:13;2.72;;;2.15;;
58615;SDS011;44385;51.992;4.206;2024-02-14T13:49:40;3.53;;;2.88;;
58615;SDS011;44385;51.992;4.206;2024-02-14T13:52:07;2.45;;;2.25;;
58615;SDS011;44385;51.992;4.206;2024-02-14T13:54:33;6.13;;;3.33;;
58615;SDS011;44385;51.992;4.206;2024-02-14T13:57:01;3.88;;;2.58;;
58615;SDS011;44385;51.992;4.206;2024-02-14T13:59:27;5.03;;;2.08;;
58615;SDS011;44385;51.992;4.206;2024-02-14T14:01:54;3.53;;;2.30;;
58615;SDS011;44385;51.992;4.206;2024-02-14T14:04:22;4.13;;;1.75;;
58615;SDS011;44385;51.992;4.206;2024-02-14T14:06:50;3.40;;;2.00;;
58615;SDS011;44385;51.992;4.206;2024-02-14T14:09:17;3.95;;;2.05;;
58615;SDS011;44385;51.992;4.206;2024-02-14T14:11:43;8.63;;;2.25;;
58615;SDS011;44385;51.992;4.206;2024-02-14T14:14:11;4.95;;;2.25;;
58615;SDS011;44385;51.992;4.206;2024-02-14T14:16:42;5.22;;;2.30;;
58615;SDS011;44385;51.992;4.206;2024-02-14T14:19:09;4.93;;;2.33;;
58615;SDS011;44385;51.992;4.206;2024-02-14T14:21:37;8.50;;;2.92;;
58615;SDS011;44385;51.992;4.206;2024-02-14T14:24:09;9.40;;;2.63;;
58615;SDS011;44385;51.992;4.206;2024-02-14T14:26:56;10.05;;;3.47;;
58615;SDS011;44385;51.992;4.206;2024-02-14T14:29:25;7.13;;;2.25;;
58615;SDS011;44385;51.992;4.206;2024-02-14T14:31:53;11.35;;;3.85;;
58615;SDS011;44385;51.992;4.206;2024-02-14T14:34:19;7.32;;;2.88;;
58615;SDS011;44385;51.992;4.206;2024-02-14T14:36:47;8.90;;;4.00;;
58615;SDS011;44385;51.992;4.206;2024-02-14T14:39:17;14.43;;;4.15;;